sensor_id;sensor_type;location;lat;lon;timestamp;P1;durP1;ratioP1;P2;durP2;ratioP2
5077;SDS011;2557;51.390;7.494;2024-03-06T00:00:49;175.93;;;34.07;;
5077;SDS011;2557;51.390;7.494;2024-03-06T00:03:15;161.57;;;35.43;;
5077;SDS011;2557;51.390;7.494;2024-03-06T00:05:41;190.73;;;34.03;;
5077;SDS011;2557;51.390;7.494;2024-03-06T00:08:08;164.10;;;35.03;;
5077;SDS011;2557;51.390;7.494;2024-03-06T00:10:34;124.37;;;29.07;;
5077;SDS011;2557;51.390;7.494;2024-03-06T00:13:01;97.57;;;28.97;;
5077;SDS011;2557;51.390;7.494;2024-03-06T00:15:27;104.22;;;27.63;;
5077;SDS011;2557;51.390;7.494;2024-03-06T00:17:53;195.07;;;35.20;;
5077;SDS011;2557;51.390;7.494;2024-03-06T00:20:19;92.88;;;28.15;;
5077;SDS011;2557;51.390;7.494;2024-03-06T00:22:45;156.87;;;32.50;;
5077;SDS011;2557;51.390;7.494;2024-03-06T00:25:11;112.38;;;31.90;;
5077;SDS011;2557;51.390;7.494;2024-03-06T00:27:37;117.93;;;28.73;;
5077;SDS011;2557;51.390;7.494;2024-03-06T00:30:03;107.17;;;29.80;;
5077;SDS011;2557;51.390;7.494;2024-03-06T00:32:29;78.45;;;26.80;;
5077;SDS011;2557;51.390;7.494;2024-03-06T00:34:55;82.50;;;27.40;;
5077;SDS011;2557;51.390;7.494;2024-03-06T00:37:21;82.10;;;25.20;;
5077;SDS011;2557;51.390;7.494;2024-03-06T00:39:47;47.45;;;24.88;;
5077;SDS011;2557;51.390;7.494;2024-03-06T00:42:13;61.43;;;23.53;;
5077;SDS011;2557;51.390;7.494;2024-03-06T00:44:39;66.03;;;26.88;;
5077;SDS011;2557;51.390;7.494;2024-03-06T00:47:05;54.75;;;25.80;;
5077;SDS011;2557;51.390;7.494;2024-03-06T00:49:31;51.87;;;23.27;;
5077;SDS011;2557;51.390;7.494;2024-03-06T00:51:57;57.27;;;26.13;;
5077;SDS011;2557;51.390;7.494;2024-03-06T00:54:23;66.40;;;26.23;;
5077;SDS011;2557;51.390;7.494;2024-03-06T00:56:49;48.23;;;23.80;;
5077;SDS011;2557;51.390;7.494;2024-03-06T00:59:15;61.57;;;27.00;;
5077;SDS011;2557;51.390;7.494;2024-03-06T01:01:41;51.87;;;25.63;;
5077;SDS011;2557;51.390;7.494;2024-03-06T01:04:07;56.07;;;24.67;;
5077;SDS011;2557;51.390;7.494;2024-03-06T01:06:33;53.23;;;27.03;;
5077;SDS011;2557;51.390;7.494;2024-03-06T01:08:59;66.73;;;28.67;;
5077;SDS011;2557;51.390;7.494;2024-03-06T01:11:25;53.27;;;28.00;;
5077;SDS011;2557;51.390;7.494;2024-03-06T01:13:52;68.03;;;27.27;;
5077;SDS011;2557;51.390;7.494;2024-03-06T01:16:18;62.13;;;26.30;;
5077;SDS011;2557;51.390;7.494;2024-03-06T01:18:44;56.40;;;25.20;;
5077;SDS011;2557;51.390;7.494;2024-03-06T01:21:10;49.23;;;23.80;;
5077;SDS011;2557;51.390;7.494;2024-03-06T01:23:36;46.27;;;24.50;;
5077;SDS011;2557;51.390;7.494;2024-03-06T01:26:02;46.80;;;22.90;;
5077;SDS011;2557;51.390;7.494;2024-03-06T01:28:28;51.03;;;27.17;;
5077;SDS011;2557;51.390;7.494;2024-03-06T01:30:54;56.67;;;26.93;;
5077;SDS011;2557;51.390;7.494;2024-03-06T01:33:20;42.20;;;26.70;;
5077;SDS011;2557;51.390;7.494;2024-03-06T01:35:46;46.83;;;24.98;;
5077;SDS011;2557;51.390;7.494;2024-03-06T01:38:12;42.17;;;23.13;;
5077;SDS011;2557;51.390;7.494;2024-03-06T01:40:43;38.67;;;23.97;;
5077;SDS011;2557;51.390;7.494;2024-03-06T01:43:20;46.03;;;23.97;;
5077;SDS011;2557;51.390;7.494;2024-03-06T01:45:47;37.63;;;22.37;;
5077;SDS011;2557;51.390;7.494;2024-03-06T01:48:13;40.63;;;21.17;;
5077;SDS011;2557;51.390;7.494;2024-03-06T01:50:40;42.50;;;22.47;;
5077;SDS011;2557;51.390;7.494;2024-03-06T01:53:06;39.95;;;24.42;;
5077;SDS011;2557;51.390;7.494;2024-03-06T01:55:33;40.47;;;22.45;;
5077;SDS011;2557;51.390;7.494;2024-03-06T01:57:59;39.17;;;23.30;;
5077;SDS011;2557;51.390;7.494;2024-03-06T02:00:25;49.75;;;25.00;;
5077;SDS011;2557;51.390;7.494;2024-03-06T02:02:52;43.20;;;23.65;;
5077;SDS011;2557;51.390;7.494;2024-03-06T02:05:19;42.53;;;23.33;;
5077;SDS011;2557;51.390;7.494;2024-03-06T02:07:45;40.73;;;24.60;;
5077;SDS011;2557;51.390;7.494;2024-03-06T02:10:12;48.20;;;25.23;;
5077;SDS011;2557;51.390;7.494;2024-03-06T02:12:38;47.20;;;26.33;;
5077;SDS011;2557;51.390;7.494;2024-03-06T02:15:06;37.50;;;22.70;;
5077;SDS011;2557;51.390;7.494;2024-03-06T02:17:33;41.33;;;23.40;;
5077;SDS011;2557;51.390;7.494;2024-03-06T02:19:59;37.50;;;22.05;;
5077;SDS011;2557;51.390;7.494;2024-03-06T02:22:25;42.50;;;24.30;;
5077;SDS011;2557;51.390;7.494;2024-03-06T02:24:51;45.25;;;24.00;;
5077;SDS011;2557;51.390;7.494;2024-03-06T02:27:17;39.85;;;23.35;;
5077;SDS011;2557;51.390;7.494;2024-03-06T02:29:43;40.30;;;22.87;;
5077;SDS011;2557;51.390;7.494;2024-03-06T02:32:11;42.00;;;25.20;;
5077;SDS011;2557;51.390;7.494;2024-03-06T02:34:38;38.45;;;22.70;;
5077;SDS011;2557;51.390;7.494;2024-03-06T02:37:05;36.58;;;22.67;;
5077;SDS011;2557;51.390;7.494;2024-03-06T02:39:31;42.43;;;24.30;;
5077;SDS011;2557;51.390;7.494;2024-03-06T02:41:57;37.13;;;23.23;;
5077;SDS011;2557;51.390;7.494;2024-03-06T02:44:23;36.80;;;21.70;;
5077;SDS011;2557;51.390;7.494;2024-03-06T02:46:49;35.03;;;21.23;;
5077;SDS011;2557;51.390;7.494;2024-03-06T02:49:16;40.03;;;20.85;;
5077;SDS011;2557;51.390;7.494;2024-03-06T02:51:43;42.42;;;24.88;;
5077;SDS011;2557;51.390;7.494;2024-03-06T02:54:09;47.10;;;23.90;;
5077;SDS011;2557;51.390;7.494;2024-03-06T02:56:35;39.43;;;24.20;;
5077;SDS011;2557;51.390;7.494;2024-03-06T02:59:01;37.47;;;22.30;;
5077;SDS011;2557;51.390;7.494;2024-03-06T03:01:28;48.30;;;23.37;;
5077;SDS011;2557;51.390;7.494;2024-03-06T03:03:54;40.97;;;23.45;;
5077;SDS011;2557;51.390;7.494;2024-03-06T03:06:21;37.40;;;21.90;;
5077;SDS011;2557;51.390;7.494;2024-03-06T03:08:49;41.63;;;21.27;;
5077;SDS011;2557;51.390;7.494;2024-03-06T03:11:15;38.73;;;24.50;;
5077;SDS011;2557;51.390;7.494;2024-03-06T03:13:41;37.43;;;21.30;;
5077;SDS011;2557;51.390;7.494;2024-03-06T03:16:15;37.20;;;22.00;;
5077;SDS011;2557;51.390;7.494;2024-03-06T03:18:42;42.60;;;23.27;;
5077;SDS011;2557;51.390;7.494;2024-03-06T03:21:08;40.60;;;22.87;;
5077;SDS011;2557;51.390;7.494;2024-03-06T03:23:37;37.67;;;22.07;;
5077;SDS011;2557;51.390;7.494;2024-03-06T03:26:04;46.22;;;25.55;;
5077;SDS011;2557;51.390;7.494;2024-03-06T03:28:30;36.72;;;22.33;;
5077;SDS011;2557;51.390;7.494;2024-03-06T03:30:56;30.58;;;18.35;;
5077;SDS011;2557;51.390;7.494;2024-03-06T03:33:22;36.23;;;19.03;;
5077;SDS011;2557;51.390;7.494;2024-03-06T03:35:48;29.07;;;17.40;;
5077;SDS011;2557;51.390;7.494;2024-03-06T03:38:14;38.63;;;19.97;;
5077;SDS011;2557;51.390;7.494;2024-03-06T03:40:41;44.55;;;20.73;;
5077;SDS011;2557;51.390;7.494;2024-03-06T03:43:07;37.53;;;19.70;;
5077;SDS011;2557;51.390;7.494;2024-03-06T03:45:33;33.57;;;18.53;;
5077;SDS011;2557;51.390;7.494;2024-03-06T03:48:00;32.60;;;18.20;;
5077;SDS011;2557;51.390;7.494;2024-03-06T03:50:27;37.90;;;21.17;;
5077;SDS011;2557;51.390;7.494;2024-03-06T03:52:54;31.40;;;19.35;;
5077;SDS011;2557;51.390;7.494;2024-03-06T03:55:22;36.55;;;19.98;;
5077;SDS011;2557;51.390;7.494;2024-03-06T03:57:48;37.50;;;20.43;;
5077;SDS011;2557;51.390;7.494;2024-03-06T04:00:14;39.17;;;19.13;;
5077;SDS011;2557;51.390;7.494;2024-03-06T04:02:41;28.80;;;16.70;;
5077;SDS011;2557;51.390;7.494;2024-03-06T04:05:07;32.77;;;18.20;;
5077;SDS011;2557;51.390;7.494;2024-03-06T04:07:35;31.40;;;18.15;;
5077;SDS011;2557;51.390;7.494;2024-03-06T04:10:01;28.30;;;17.60;;
5077;SDS011;2557;51.390;7.494;2024-03-06T04:12:27;33.78;;;19.60;;
5077;SDS011;2557;51.390;7.494;2024-03-06T04:14:54;30.23;;;16.77;;
5077;SDS011;2557;51.390;7.494;2024-03-06T04:17:19;27.80;;;16.67;;
5077;SDS011;2557;51.390;7.494;2024-03-06T04:19:45;34.97;;;18.83;;
5077;SDS011;2557;51.390;7.494;2024-03-06T04:22:13;34.05;;;19.88;;
5077;SDS011;2557;51.390;7.494;2024-03-06T04:24:42;33.15;;;18.15;;
5077;SDS011;2557;51.390;7.494;2024-03-06T04:27:08;37.42;;;20.05;;
5077;SDS011;2557;51.390;7.494;2024-03-06T04:29:34;37.92;;;20.88;;
5077;SDS011;2557;51.390;7.494;2024-03-06T04:32:01;40.33;;;20.67;;
5077;SDS011;2557;51.390;7.494;2024-03-06T04:34:27;36.25;;;21.20;;
5077;SDS011;2557;51.390;7.494;2024-03-06T04:36:53;37.63;;;20.35;;
5077;SDS011;2557;51.390;7.494;2024-03-06T04:39:19;32.10;;;18.90;;
5077;SDS011;2557;51.390;7.494;2024-03-06T04:41:45;35.20;;;18.33;;
5077;SDS011;2557;51.390;7.494;2024-03-06T04:44:11;31.70;;;19.75;;
5077;SDS011;2557;51.390;7.494;2024-03-06T04:46:37;31.97;;;19.27;;
5077;SDS011;2557;51.390;7.494;2024-03-06T04:49:03;31.53;;;18.30;;
5077;SDS011;2557;51.390;7.494;2024-03-06T04:51:29;36.95;;;21.98;;
5077;SDS011;2557;51.390;7.494;2024-03-06T04:53:55;38.03;;;20.33;;
5077;SDS011;2557;51.390;7.494;2024-03-06T04:56:21;33.27;;;19.63;;
5077;SDS011;2557;51.390;7.494;2024-03-06T04:58:47;34.80;;;20.45;;
5077;SDS011;2557;51.390;7.494;2024-03-06T05:01:13;36.22;;;19.40;;
5077;SDS011;2557;51.390;7.494;2024-03-06T05:03:39;36.27;;;20.70;;
5077;SDS011;2557;51.390;7.494;2024-03-06T05:06:05;34.60;;;20.80;;
5077;SDS011;2557;51.390;7.494;2024-03-06T05:08:31;36.45;;;20.38;;
5077;SDS011;2557;51.390;7.494;2024-03-06T05:10:59;37.58;;;20.13;;
5077;SDS011;2557;51.390;7.494;2024-03-06T05:13:26;35.10;;;19.02;;
5077;SDS011;2557;51.390;7.494;2024-03-06T05:15:52;35.70;;;19.45;;
5077;SDS011;2557;51.390;7.494;2024-03-06T05:18:19;35.55;;;20.33;;
5077;SDS011;2557;51.390;7.494;2024-03-06T05:20:46;34.40;;;20.02;;
5077;SDS011;2557;51.390;7.494;2024-03-06T05:23:12;32.38;;;18.48;;
5077;SDS011;2557;51.390;7.494;2024-03-06T05:25:39;36.22;;;20.42;;
5077;SDS011;2557;51.390;7.494;2024-03-06T05:28:06;35.90;;;18.83;;
5077;SDS011;2557;51.390;7.494;2024-03-06T05:30:32;32.67;;;18.07;;
5077;SDS011;2557;51.390;7.494;2024-03-06T05:32:58;45.67;;;23.13;;
5077;SDS011;2557;51.390;7.494;2024-03-06T05:35:24;43.63;;;21.37;;
5077;SDS011;2557;51.390;7.494;2024-03-06T05:37:50;37.88;;;21.83;;
5077;SDS011;2557;51.390;7.494;2024-03-06T05:40:16;32.63;;;19.38;;
5077;SDS011;2557;51.390;7.494;2024-03-06T05:42:42;34.83;;;17.90;;
5077;SDS011;2557;51.390;7.494;2024-03-06T05:45:08;37.53;;;21.00;;
5077;SDS011;2557;51.390;7.494;2024-03-06T05:47:37;34.15;;;21.05;;
5077;SDS011;2557;51.390;7.494;2024-03-06T05:50:03;33.67;;;20.80;;
5077;SDS011;2557;51.390;7.494;2024-03-06T05:52:32;37.00;;;22.90;;
5077;SDS011;2557;51.390;7.494;2024-03-06T05:55:01;34.42;;;20.35;;
5077;SDS011;2557;51.390;7.494;2024-03-06T05:57:27;31.63;;;18.90;;
5077;SDS011;2557;51.390;7.494;2024-03-06T05:59:53;36.50;;;20.50;;
5077;SDS011;2557;51.390;7.494;2024-03-06T06:02:19;32.97;;;19.33;;
5077;SDS011;2557;51.390;7.494;2024-03-06T06:04:45;32.78;;;19.27;;
5077;SDS011;2557;51.390;7.494;2024-03-06T06:07:11;41.45;;;20.00;;
5077;SDS011;2557;51.390;7.494;2024-03-06T06:09:37;39.67;;;22.08;;
5077;SDS011;2557;51.390;7.494;2024-03-06T06:12:04;40.38;;;20.30;;
5077;SDS011;2557;51.390;7.494;2024-03-06T06:14:30;44.38;;;19.73;;
5077;SDS011;2557;51.390;7.494;2024-03-06T06:16:56;48.03;;;20.05;;
5077;SDS011;2557;51.390;7.494;2024-03-06T06:19:22;57.05;;;21.00;;
5077;SDS011;2557;51.390;7.494;2024-03-06T06:21:48;39.87;;;18.60;;
5077;SDS011;2557;51.390;7.494;2024-03-06T06:24:14;28.85;;;17.38;;
5077;SDS011;2557;51.390;7.494;2024-03-06T06:26:40;27.17;;;16.67;;
5077;SDS011;2557;51.390;7.494;2024-03-06T06:29:07;27.35;;;15.40;;
5077;SDS011;2557;51.390;7.494;2024-03-06T06:31:33;27.88;;;17.40;;
5077;SDS011;2557;51.390;7.494;2024-03-06T06:33:59;30.00;;;16.83;;
5077;SDS011;2557;51.390;7.494;2024-03-06T06:36:25;26.98;;;17.27;;
5077;SDS011;2557;51.390;7.494;2024-03-06T06:38:52;48.00;;;20.77;;
5077;SDS011;2557;51.390;7.494;2024-03-06T06:41:19;33.45;;;20.20;;
5077;SDS011;2557;51.390;7.494;2024-03-06T06:43:45;50.40;;;19.70;;
5077;SDS011;2557;51.390;7.494;2024-03-06T06:46:11;40.13;;;20.75;;
5077;SDS011;2557;51.390;7.494;2024-03-06T06:48:37;49.80;;;19.63;;
5077;SDS011;2557;51.390;7.494;2024-03-06T06:51:03;66.03;;;22.60;;
5077;SDS011;2557;51.390;7.494;2024-03-06T06:53:29;44.08;;;20.20;;
5077;SDS011;2557;51.390;7.494;2024-03-06T06:55:55;42.67;;;20.65;;
5077;SDS011;2557;51.390;7.494;2024-03-06T06:58:22;38.60;;;21.52;;
5077;SDS011;2557;51.390;7.494;2024-03-06T07:00:48;88.18;;;23.70;;
5077;SDS011;2557;51.390;7.494;2024-03-06T07:03:14;106.20;;;25.60;;
5077;SDS011;2557;51.390;7.494;2024-03-06T07:05:40;54.65;;;21.90;;
5077;SDS011;2557;51.390;7.494;2024-03-06T07:08:09;51.72;;;21.55;;
5077;SDS011;2557;51.390;7.494;2024-03-06T07:10:35;50.87;;;20.57;;
5077;SDS011;2557;51.390;7.494;2024-03-06T07:13:02;39.50;;;19.93;;
5077;SDS011;2557;51.390;7.494;2024-03-06T07:15:28;36.35;;;23.35;;
5077;SDS011;2557;51.390;7.494;2024-03-06T07:17:54;42.38;;;21.17;;
5077;SDS011;2557;51.390;7.494;2024-03-06T07:20:20;37.60;;;20.30;;
5077;SDS011;2557;51.390;7.494;2024-03-06T07:22:46;35.65;;;20.30;;
5077;SDS011;2557;51.390;7.494;2024-03-06T07:25:12;32.28;;;19.65;;
5077;SDS011;2557;51.390;7.494;2024-03-06T07:27:38;36.10;;;20.17;;
5077;SDS011;2557;51.390;7.494;2024-03-06T07:30:04;30.27;;;18.77;;
5077;SDS011;2557;51.390;7.494;2024-03-06T07:32:32;31.73;;;18.92;;
5077;SDS011;2557;51.390;7.494;2024-03-06T07:34:58;31.60;;;18.80;;
5077;SDS011;2557;51.390;7.494;2024-03-06T07:37:24;31.37;;;18.13;;
5077;SDS011;2557;51.390;7.494;2024-03-06T07:39:50;28.10;;;16.13;;
5077;SDS011;2557;51.390;7.494;2024-03-06T07:42:16;32.07;;;18.80;;
5077;SDS011;2557;51.390;7.494;2024-03-06T07:44:43;26.85;;;17.80;;
5077;SDS011;2557;51.390;7.494;2024-03-06T07:47:09;30.90;;;19.10;;
5077;SDS011;2557;51.390;7.494;2024-03-06T07:49:35;35.88;;;20.45;;
5077;SDS011;2557;51.390;7.494;2024-03-06T07:52:01;33.58;;;19.13;;
5077;SDS011;2557;51.390;7.494;2024-03-06T07:54:27;30.90;;;18.20;;
5077;SDS011;2557;51.390;7.494;2024-03-06T07:56:53;28.93;;;18.50;;
5077;SDS011;2557;51.390;7.494;2024-03-06T07:59:19;30.37;;;18.60;;
5077;SDS011;2557;51.390;7.494;2024-03-06T08:01:45;30.50;;;18.93;;
5077;SDS011;2557;51.390;7.494;2024-03-06T08:04:11;30.23;;;18.27;;
5077;SDS011;2557;51.390;7.494;2024-03-06T08:06:37;30.07;;;18.27;;
5077;SDS011;2557;51.390;7.494;2024-03-06T08:09:04;30.80;;;19.17;;
5077;SDS011;2557;51.390;7.494;2024-03-06T08:11:31;30.17;;;19.10;;
5077;SDS011;2557;51.390;7.494;2024-03-06T08:13:59;40.77;;;21.10;;
5077;SDS011;2557;51.390;7.494;2024-03-06T08:16:26;32.23;;;18.60;;
5077;SDS011;2557;51.390;7.494;2024-03-06T08:18:52;35.23;;;20.40;;
5077;SDS011;2557;51.390;7.494;2024-03-06T08:21:18;36.40;;;19.47;;
5077;SDS011;2557;51.390;7.494;2024-03-06T08:23:47;32.30;;;19.17;;
5077;SDS011;2557;51.390;7.494;2024-03-06T08:26:14;36.20;;;20.97;;
5077;SDS011;2557;51.390;7.494;2024-03-06T08:28:40;47.27;;;21.90;;
5077;SDS011;2557;51.390;7.494;2024-03-06T08:31:06;37.70;;;22.63;;
5077;SDS011;2557;51.390;7.494;2024-03-06T08:33:33;41.47;;;22.70;;
5077;SDS011;2557;51.390;7.494;2024-03-06T08:35:59;39.93;;;23.40;;
5077;SDS011;2557;51.390;7.494;2024-03-06T08:38:25;41.77;;;24.53;;
5077;SDS011;2557;51.390;7.494;2024-03-06T08:40:51;40.33;;;23.40;;
5077;SDS011;2557;51.390;7.494;2024-03-06T08:43:17;44.03;;;24.20;;
5077;SDS011;2557;51.390;7.494;2024-03-06T08:45:44;42.87;;;24.83;;
5077;SDS011;2557;51.390;7.494;2024-03-06T08:48:10;40.47;;;23.40;;
5077;SDS011;2557;51.390;7.494;2024-03-06T08:50:36;39.67;;;24.13;;
5077;SDS011;2557;51.390;7.494;2024-03-06T08:53:02;37.23;;;23.20;;
5077;SDS011;2557;51.390;7.494;2024-03-06T08:55:28;36.47;;;23.63;;
5077;SDS011;2557;51.390;7.494;2024-03-06T08:57:54;29.23;;;20.10;;
5077;SDS011;2557;51.390;7.494;2024-03-06T09:00:20;37.27;;;20.40;;
5077;SDS011;2557;51.390;7.494;2024-03-06T09:02:46;35.17;;;22.43;;
5077;SDS011;2557;51.390;7.494;2024-03-06T09:05:12;41.50;;;21.93;;
5077;SDS011;2557;51.390;7.494;2024-03-06T09:07:39;34.27;;;21.70;;
5077;SDS011;2557;51.390;7.494;2024-03-06T09:10:09;33.60;;;22.67;;
5077;SDS011;2557;51.390;7.494;2024-03-06T09:12:35;35.70;;;23.60;;
5077;SDS011;2557;51.390;7.494;2024-03-06T09:15:01;31.90;;;20.17;;
5077;SDS011;2557;51.390;7.494;2024-03-06T09:17:28;35.53;;;21.40;;
5077;SDS011;2557;51.390;7.494;2024-03-06T09:19:54;35.70;;;23.63;;
5077;SDS011;2557;51.390;7.494;2024-03-06T09:22:20;35.30;;;21.77;;
5077;SDS011;2557;51.390;7.494;2024-03-06T09:24:47;35.63;;;23.43;;
5077;SDS011;2557;51.390;7.494;2024-03-06T09:27:14;34.17;;;23.27;;
5077;SDS011;2557;51.390;7.494;2024-03-06T09:29:40;31.43;;;21.33;;
5077;SDS011;2557;51.390;7.494;2024-03-06T09:32:06;39.67;;;24.70;;
5077;SDS011;2557;51.390;7.494;2024-03-06T09:34:32;36.70;;;21.27;;
5077;SDS011;2557;51.390;7.494;2024-03-06T09:36:58;31.40;;;21.90;;
5077;SDS011;2557;51.390;7.494;2024-03-06T09:39:24;35.40;;;23.30;;
5077;SDS011;2557;51.390;7.494;2024-03-06T09:41:50;37.83;;;22.83;;
5077;SDS011;2557;51.390;7.494;2024-03-06T09:44:17;24.90;;;18.87;;
5077;SDS011;2557;51.390;7.494;2024-03-06T09:46:43;36.63;;;22.37;;
5077;SDS011;2557;51.390;7.494;2024-03-06T09:49:10;26.33;;;19.47;;
5077;SDS011;2557;51.390;7.494;2024-03-06T09:51:39;31.97;;;20.73;;
5077;SDS011;2557;51.390;7.494;2024-03-06T09:54:07;26.90;;;19.97;;
5077;SDS011;2557;51.390;7.494;2024-03-06T09:56:34;26.97;;;19.40;;
5077;SDS011;2557;51.390;7.494;2024-03-06T09:59:00;24.17;;;19.20;;
5077;SDS011;2557;51.390;7.494;2024-03-06T10:01:28;26.13;;;19.70;;
5077;SDS011;2557;51.390;7.494;2024-03-06T10:03:56;27.50;;;18.83;;
5077;SDS011;2557;51.390;7.494;2024-03-06T10:06:22;27.23;;;19.80;;
5077;SDS011;2557;51.390;7.494;2024-03-06T10:08:48;23.80;;;18.37;;
5077;SDS011;2557;51.390;7.494;2024-03-06T10:11:15;22.20;;;18.10;;
5077;SDS011;2557;51.390;7.494;2024-03-06T10:13:42;19.97;;;17.10;;
5077;SDS011;2557;51.390;7.494;2024-03-06T10:16:08;20.60;;;17.47;;
5077;SDS011;2557;51.390;7.494;2024-03-06T10:18:35;23.23;;;18.47;;
5077;SDS011;2557;51.390;7.494;2024-03-06T10:21:03;21.30;;;18.23;;
5077;SDS011;2557;51.390;7.494;2024-03-06T10:23:30;21.50;;;15.00;;
5077;SDS011;2557;51.390;7.494;2024-03-06T10:25:56;20.73;;;16.07;;
5077;SDS011;2557;51.390;7.494;2024-03-06T10:28:23;15.60;;;13.97;;
5077;SDS011;2557;51.390;7.494;2024-03-06T10:30:49;18.50;;;15.30;;
5077;SDS011;2557;51.390;7.494;2024-03-06T10:33:17;16.70;;;13.80;;
5077;SDS011;2557;51.390;7.494;2024-03-06T10:35:46;19.50;;;13.30;;
5077;SDS011;2557;51.390;7.494;2024-03-06T10:38:16;14.40;;;13.00;;
5077;SDS011;2557;51.390;7.494;2024-03-06T10:40:44;16.10;;;13.73;;
5077;SDS011;2557;51.390;7.494;2024-03-06T10:43:10;18.23;;;14.93;;
5077;SDS011;2557;51.390;7.494;2024-03-06T10:48:08;18.27;;;15.27;;
5077;SDS011;2557;51.390;7.494;2024-03-06T10:50:38;16.53;;;13.90;;
5077;SDS011;2557;51.390;7.494;2024-03-06T10:53:08;15.53;;;13.80;;
5077;SDS011;2557;51.390;7.494;2024-03-06T10:55:35;13.80;;;11.60;;
5077;SDS011;2557;51.390;7.494;2024-03-06T10:58:01;13.07;;;10.83;;
5077;SDS011;2557;51.390;7.494;2024-03-06T11:00:29;12.20;;;10.90;;
5077;SDS011;2557;51.390;7.494;2024-03-06T11:02:55;10.30;;;9.20;;
5077;SDS011;2557;51.390;7.494;2024-03-06T11:05:21;13.00;;;10.23;;
5077;SDS011;2557;51.390;7.494;2024-03-06T11:07:47;13.20;;;10.70;;
5077;SDS011;2557;51.390;7.494;2024-03-06T11:10:15;11.13;;;8.60;;
5077;SDS011;2557;51.390;7.494;2024-03-06T11:12:54;12.93;;;11.43;;
5077;SDS011;2557;51.390;7.494;2024-03-06T11:15:21;11.93;;;10.40;;
5077;SDS011;2557;51.390;7.494;2024-03-06T11:17:47;9.73;;;8.73;;
5077;SDS011;2557;51.390;7.494;2024-03-06T11:20:17;8.83;;;7.17;;
5077;SDS011;2557;51.390;7.494;2024-03-06T11:28:08;12.30;;;11.00;;
5077;SDS011;2557;51.390;7.494;2024-03-06T11:30:44;12.17;;;10.33;;
5077;SDS011;2557;51.390;7.494;2024-03-06T11:33:11;13.80;;;10.87;;
5077;SDS011;2557;51.390;7.494;2024-03-06T11:35:38;15.17;;;12.37;;
5077;SDS011;2557;51.390;7.494;2024-03-06T11:38:06;14.77;;;11.80;;
5077;SDS011;2557;51.390;7.494;2024-03-06T11:40:32;14.40;;;12.00;;
5077;SDS011;2557;51.390;7.494;2024-03-06T11:43:21;12.77;;;11.50;;
5077;SDS011;2557;51.390;7.494;2024-03-06T11:45:44;13.70;;;12.30;;
5077;SDS011;2557;51.390;7.494;2024-03-06T11:48:13;13.60;;;11.33;;
5077;SDS011;2557;51.390;7.494;2024-03-06T11:50:44;12.20;;;10.90;;
5077;SDS011;2557;51.390;7.494;2024-03-06T11:53:10;13.07;;;11.67;;
5077;SDS011;2557;51.390;7.494;2024-03-06T11:55:37;12.00;;;10.83;;
5077;SDS011;2557;51.390;7.494;2024-03-06T11:58:04;14.87;;;12.20;;
5077;SDS011;2557;51.390;7.494;2024-03-06T12:00:32;14.33;;;12.07;;
5077;SDS011;2557;51.390;7.494;2024-03-06T12:02:58;13.43;;;11.13;;
5077;SDS011;2557;51.390;7.494;2024-03-06T12:05:25;12.63;;;11.10;;
5077;SDS011;2557;51.390;7.494;2024-03-06T12:07:52;12.60;;;11.30;;
5077;SDS011;2557;51.390;7.494;2024-03-06T12:10:19;13.80;;;11.27;;
5077;SDS011;2557;51.390;7.494;2024-03-06T12:12:45;13.70;;;12.10;;
5077;SDS011;2557;51.390;7.494;2024-03-06T12:15:12;11.87;;;10.77;;
5077;SDS011;2557;51.390;7.494;2024-03-06T12:17:45;13.27;;;11.47;;
5077;SDS011;2557;51.390;7.494;2024-03-06T12:20:14;12.60;;;11.30;;
5077;SDS011;2557;51.390;7.494;2024-03-06T12:22:59;13.47;;;12.17;;
5077;SDS011;2557;51.390;7.494;2024-03-06T12:25:25;14.53;;;13.03;;
5077;SDS011;2557;51.390;7.494;2024-03-06T12:27:53;16.03;;;14.67;;
5077;SDS011;2557;51.390;7.494;2024-03-06T12:30:20;16.63;;;15.13;;
5077;SDS011;2557;51.390;7.494;2024-03-06T12:35:25;15.70;;;14.20;;
5077;SDS011;2557;51.390;7.494;2024-03-06T12:37:52;19.87;;;17.87;;
5077;SDS011;2557;51.390;7.494;2024-03-06T12:40:18;20.47;;;17.10;;
5077;SDS011;2557;51.390;7.494;2024-03-06T12:42:44;21.43;;;19.13;;
5077;SDS011;2557;51.390;7.494;2024-03-06T12:45:11;19.13;;;17.40;;
5077;SDS011;2557;51.390;7.494;2024-03-06T12:47:40;19.20;;;17.20;;
5077;SDS011;2557;51.390;7.494;2024-03-06T12:50:06;19.53;;;17.53;;
5077;SDS011;2557;51.390;7.494;2024-03-06T12:52:33;21.20;;;18.90;;
5077;SDS011;2557;51.390;7.494;2024-03-06T12:54:59;21.23;;;19.10;;
5077;SDS011;2557;51.390;7.494;2024-03-06T12:57:25;19.37;;;17.60;;
5077;SDS011;2557;51.390;7.494;2024-03-06T12:59:52;21.50;;;19.30;;
5077;SDS011;2557;51.390;7.494;2024-03-06T13:02:18;20.47;;;18.27;;
5077;SDS011;2557;51.390;7.494;2024-03-06T13:04:44;20.53;;;18.40;;
5077;SDS011;2557;51.390;7.494;2024-03-06T13:07:10;21.80;;;17.90;;
5077;SDS011;2557;51.390;7.494;2024-03-06T13:09:36;19.93;;;17.90;;
5077;SDS011;2557;51.390;7.494;2024-03-06T13:12:03;25.63;;;20.70;;
5077;SDS011;2557;51.390;7.494;2024-03-06T13:14:31;23.87;;;20.57;;
5077;SDS011;2557;51.390;7.494;2024-03-06T13:16:57;23.40;;;20.97;;
5077;SDS011;2557;51.390;7.494;2024-03-06T13:19:23;25.63;;;22.93;;
5077;SDS011;2557;51.390;7.494;2024-03-06T13:21:49;27.50;;;23.40;;
5077;SDS011;2557;51.390;7.494;2024-03-06T13:24:15;26.83;;;23.77;;
5077;SDS011;2557;51.390;7.494;2024-03-06T13:26:41;30.80;;;24.50;;
5077;SDS011;2557;51.390;7.494;2024-03-06T13:29:07;32.60;;;26.17;;
5077;SDS011;2557;51.390;7.494;2024-03-06T13:31:33;31.30;;;25.70;;
5077;SDS011;2557;51.390;7.494;2024-03-06T13:34:00;27.37;;;22.93;;
5077;SDS011;2557;51.390;7.494;2024-03-06T13:36:27;26.00;;;23.33;;
5077;SDS011;2557;51.390;7.494;2024-03-06T13:38:53;26.80;;;22.17;;
5077;SDS011;2557;51.390;7.494;2024-03-06T13:41:19;24.67;;;20.70;;
5077;SDS011;2557;51.390;7.494;2024-03-06T13:43:45;22.80;;;20.10;;
5077;SDS011;2557;51.390;7.494;2024-03-06T13:46:11;25.70;;;19.90;;
5077;SDS011;2557;51.390;7.494;2024-03-06T13:48:37;25.83;;;21.43;;
5077;SDS011;2557;51.390;7.494;2024-03-06T13:51:03;24.67;;;22.00;;
5077;SDS011;2557;51.390;7.494;2024-03-06T13:53:30;24.00;;;21.50;;
5077;SDS011;2557;51.390;7.494;2024-03-06T13:55:56;28.00;;;22.57;;
5077;SDS011;2557;51.390;7.494;2024-03-06T13:58:22;29.57;;;24.50;;
5077;SDS011;2557;51.390;7.494;2024-03-06T14:00:48;31.40;;;25.47;;
5077;SDS011;2557;51.390;7.494;2024-03-06T14:03:16;41.10;;;27.73;;
5077;SDS011;2557;51.390;7.494;2024-03-06T14:05:42;32.67;;;29.17;;
5077;SDS011;2557;51.390;7.494;2024-03-06T14:08:08;36.10;;;30.20;;
5077;SDS011;2557;51.390;7.494;2024-03-06T14:10:36;35.90;;;29.40;;
5077;SDS011;2557;51.390;7.494;2024-03-06T14:13:04;37.30;;;30.20;;
5077;SDS011;2557;51.390;7.494;2024-03-06T14:15:31;35.97;;;29.20;;
5077;SDS011;2557;51.390;7.494;2024-03-06T14:17:57;35.30;;;29.30;;
5077;SDS011;2557;51.390;7.494;2024-03-06T14:20:23;38.10;;;30.43;;
5077;SDS011;2557;51.390;7.494;2024-03-06T14:22:49;39.27;;;31.87;;
5077;SDS011;2557;51.390;7.494;2024-03-06T14:25:15;37.90;;;30.77;;
5077;SDS011;2557;51.390;7.494;2024-03-06T14:27:42;37.57;;;29.70;;
5077;SDS011;2557;51.390;7.494;2024-03-06T14:30:08;37.90;;;30.33;;
5077;SDS011;2557;51.390;7.494;2024-03-06T14:32:39;35.00;;;28.20;;
5077;SDS011;2557;51.390;7.494;2024-03-06T14:35:05;39.10;;;29.60;;
5077;SDS011;2557;51.390;7.494;2024-03-06T14:37:32;38.87;;;29.90;;
5077;SDS011;2557;51.390;7.494;2024-03-06T14:39:58;39.97;;;30.73;;
5077;SDS011;2557;51.390;7.494;2024-03-06T14:42:24;38.07;;;30.00;;
5077;SDS011;2557;51.390;7.494;2024-03-06T14:44:50;36.33;;;31.67;;
5077;SDS011;2557;51.390;7.494;2024-03-06T14:47:16;40.97;;;30.77;;
5077;SDS011;2557;51.390;7.494;2024-03-06T14:49:42;42.30;;;32.43;;
5077;SDS011;2557;51.390;7.494;2024-03-06T14:52:10;40.20;;;31.80;;
5077;SDS011;2557;51.390;7.494;2024-03-06T14:54:36;44.20;;;34.07;;